Time;durP1;ratioP1;P1;durP2;ratioP2;P2;SDS_P1;SDS_P2;PMS_P1;PMS_P2;Temp;Humidity;BMP_temperature;BMP_pressure;BME280_temperature;BME280_humidity;BME280_pressure;Samples;Min_cycle;Max_cycle;Signal;HPM_P1;HPM_P2
2024/01/06 00:00:34;;;;;;;18.35;8.80;;;9.40;99.90;;;;;;7423226;19;20352;-81
2024/01/06 00:03:32;;;;;;;22.30;10.13;;;9.30;99.90;;;;;;7426292;19;20233;-83
2024/01/06 00:09:17;;;;;;;20.38;10.75;;;9.30;99.90;;;;;;7425896;19;20015;-83
2024/01/06 00:11:52;;;;;;;27.57;11.97;;;9.30;99.90;;;;;;7427007;19;20010;-82
2024/01/06 00:44:53;;;;;;;10.75;5.45;;;9.00;99.90;;;;;;7423734;19;20014;-83
2024/01/06 00:47:31;;;;;;;10.93;4.63;;;8.90;99.90;;;;;;7426862;19;20376;-83
2024/01/06 00:50:27;;;;;;;13.15;4.80;;;8.90;99.90;;;;;;7425018;19;20006;-83
2024/01/06 00:53:00;;;;;;;10.70;5.00;;;8.90;99.90;;;;;;7450255;19;20011;-82
2024/01/06 01:14:02;;;;;;;;;;;;;;;;;;;;;
2024/01/06 01:19:56;;;;;;;7.57;3.47;;;8.70;99.90;;;;;;7425729;19;19926;-82
2024/01/06 01:22:25;;;;;;;5.30;3.50;;;8.60;99.90;;;;;;7421109;19;19999;-81
2024/01/06 01:24:54;;;;;;;10.45;3.67;;;8.50;99.90;;;;;;7423633;19;20035;-82
2024/01/06 01:27:23;;;;;;;10.60;3.83;;;8.50;99.90;;;;;;7423529;19;20002;-80
2024/01/06 01:29:54;;;;;;;10.02;4.07;;;8.50;99.90;;;;;;7422168;19;20002;-81
2024/01/06 01:32:26;;;;;;;7.65;3.92;;;8.50;99.90;;;;;;7423170;19;20003;-81
2024/01/06 01:38:06;;;;;;;7.55;3.90;;;8.50;99.90;;;;;;7422884;19;20010;-81
2024/01/06 01:40:39;;;;;;;8.82;4.00;;;8.50;99.90;;;;;;7418837;19;20006;-83
2024/01/06 01:43:17;;;;;;;15.65;4.43;;;8.50;99.90;;;;;;7394658;19;20007;-82
2024/01/06 01:45:58;;;;;;;11.02;5.22;;;8.40;99.90;;;;;;7392273;19;20035;-83
2024/01/06 01:48:34;;;;;;;9.55;4.95;;;8.50;99.90;;;;;;7393697;19;20003;-82
2024/01/06 01:51:32;;;;;;;13.75;5.32;;;8.50;99.90;;;;;;7392025;19;20325;-82
2024/01/06 01:54:28;;;;;;;;;;;;;;;;;;;;;
2024/01/06 01:57:20;;;;;;;14.07;4.10;;;8.50;99.90;;;;;;7396525;19;20002;-83
2024/01/06 02:00:29;;;;;;;15.57;5.75;;;8.50;99.90;;;;;;7396521;19;20030;-82
2024/01/06 03:28:58;;;;;;;10.48;5.55;;;8.50;99.90;;;;;;7423818;19;20006;-83
2024/01/06 03:54:53;;;;;;;10.13;5.57;;;8.70;99.90;;;;;;7132595;19;5701473;-82
2024/01/06 03:57:27;;;;;;;10.48;5.68;;;8.70;99.90;;;;;;7428086;19;20014;-81
2024/01/06 07:49:59;;;;;;;18.52;10.60;;;8.90;99.90;;;;;;7424059;19;20024;-82
2024/01/06 07:56:34;;;;;;;16.98;9.10;;;8.90;99.90;;;;;;7424015;19;20006;-83
2024/01/06 08:02:42;;;;;;;15.82;8.60;;;9.00;99.90;;;;;;7321177;19;2004408;-83
2024/01/06 08:05:46;;;;;;;18.45;9.48;;;9.00;99.90;;;;;;7443617;19;20022;-83
2024/01/06 08:28:51;;;;;;;38.15;15.50;;;9.10;99.90;;;;;;7413507;19;20360;-78
2024/01/06 08:31:22;;;;;;;27.33;13.80;;;9.20;99.90;;;;;;7417757;19;20070;-80
2024/01/06 08:33:52;;;;;;;37.80;15.05;;;9.20;99.90;;;;;;7422003;19;20006;-83
2024/01/06 08:36:21;;;;;;;25.10;11.18;;;9.20;99.90;;;;;;7421468;19;20003;-81
2024/01/06 08:38:50;;;;;;;32.75;15.63;;;9.20;99.90;;;;;;7419077;19;20331;-79
2024/01/06 08:41:22;;;;;;;38.83;17.58;;;9.20;99.90;;;;;;7442081;19;20389;-80
2024/01/06 08:43:54;;;;;;;54.47;23.25;;;9.20;99.90;;;;;;7423802;19;20026;-81
2024/01/06 08:46:22;;;;;;;261.23;38.65;;;9.20;99.90;;;;;;7420644;19;20010;-80
2024/01/06 08:48:51;;;;;;;22.67;10.23;;;9.10;99.90;;;;;;7420665;19;20010;-79
2024/01/06 08:51:20;;;;;;;26.77;10.20;;;9.20;99.90;;;;;;7417798;19;20019;-78
2024/01/06 08:57:01;;;;;;;;;;;;;;;;;;;;;
2024/01/06 09:02:37;;;;;;;14.23;8.07;;;9.30;99.90;;;;;;7424898;19;20013;-79
2024/01/06 09:05:09;;;;;;;14.18;7.55;;;9.30;99.90;;;;;;7448184;19;20002;-81
2024/01/06 09:07:37;;;;;;;;;;;9.40;99.90;;;;;;7425608;19;20024;-80
2024/01/06 09:10:07;;;;;;;12.52;6.15;;;9.40;99.90;;;;;;7426817;19;19985;-79
2024/01/06 09:12:38;;;;;;;15.57;6.93;;;9.40;99.90;;;;;;7423160;19;20007;-79
2024/01/06 09:15:11;;;;;;;23.65;6.50;;;9.30;99.90;;;;;;7425976;19;20014;-79
2024/01/06 09:17:40;;;;;;;17.63;5.47;;;9.30;99.90;;;;;;7424655;19;20002;-80
2024/01/06 09:20:10;;;;;;;10.82;5.55;;;9.30;99.90;;;;;;7446989;19;20057;-79
2024/01/06 09:22:38;;;;;;;7.50;4.80;;;9.30;99.90;;;;;;7426597;19;20243;-79
2024/01/06 09:25:08;;;;;;;8.25;4.68;;;9.40;99.90;;;;;;7425089;19;20026;-80
2024/01/06 09:27:37;;;;;;;12.68;5.68;;;9.40;99.90;;;;;;7422932;19;20009;-80
2024/01/06 09:30:12;;;;;;;13.10;5.28;;;9.40;99.90;;;;;;7395024;19;20010;-80
2024/01/06 09:32:41;;;;;;;7.72;4.30;;;9.50;99.90;;;;;;7393916;19;20357;-81
2024/01/06 09:35:10;;;;;;;7.60;4.30;;;9.50;99.90;;;;;;7420282;19;20016;-79
2024/01/06 09:37:40;;;;;;;10.50;4.03;;;9.50;99.90;;;;;;7396580;19;20014;-81
2024/01/06 09:40:14;;;;;;;11.77;4.63;;;9.50;99.90;;;;;;7397682;19;20241;-80
2024/01/06 09:42:43;;;;;;;15.40;4.35;;;9.60;99.90;;;;;;7396298;19;20017;-80
2024/01/06 09:45:17;;;;;;;12.07;4.65;;;9.60;99.90;;;;;;7397516;19;20010;-80
2024/01/06 09:47:51;;;;;;;5.72;3.10;;;9.50;99.90;;;;;;7394932;19;20030;-80
2024/01/06 09:50:21;;;;;;;7.70;3.70;;;9.60;99.90;;;;;;7420430;19;20011;-80
2024/01/06 09:52:53;;;;;;;7.00;3.63;;;9.50;99.90;;;;;;7408553;19;20021;-80
2024/01/06 09:55:27;;;;;;;4.85;3.10;;;9.60;99.90;;;;;;7410731;19;20006;-80
2024/01/06 09:57:56;;;;;;;16.35;4.30;;;9.50;99.90;;;;;;7410650;19;20011;-80
2024/01/06 10:00:28;;;;;;;7.70;3.35;;;9.60;99.90;;;;;;7408252;19;20002;-81
2024/01/06 10:02:57;;;;;;;21.20;3.72;;;9.60;99.90;;;;;;7402369;19;20274;-79
2024/01/06 10:05:26;;;;;;;9.85;4.88;;;9.50;99.90;;;;;;7415680;19;20010;-79
2024/01/06 10:07:57;;;;;;;4.88;3.13;;;9.50;99.90;;;;;;7395251;19;20037;-80
2024/01/06 10:10:26;;;;;;;8.85;3.17;;;9.60;99.90;;;;;;7395086;19;20007;-81
2024/01/06 10:13:01;;;;;;;10.73;3.13;;;9.50;99.90;;;;;;7394651;19;20015;-80
2024/01/06 10:15:32;;;;;;;3.80;2.15;;;9.60;99.90;;;;;;7396700;19;20017;-80
2024/01/06 10:18:04;;;;;;;4.90;2.70;;;9.50;99.90;;;;;;7391436;19;20023;-79
2024/01/06 10:20:32;;;;;;;4.78;2.60;;;9.60;99.90;;;;;;7408684;19;20026;-78
2024/01/06 10:23:07;;;;;;;7.65;2.78;;;9.60;99.90;;;;;;7387810;19;20011;-79
2024/01/06 10:25:39;;;;;;;4.68;1.83;;;9.60;99.90;;;;;;7386256;19;20062;-80
2024/01/06 10:28:08;;;;;;;4.53;1.98;;;9.40;99.90;;;;;;7385759;19;20003;-79
2024/01/06 10:30:43;;;;;;;3.55;1.77;;;9.30;99.90;;;;;;7385782;19;20010;-79
2024/01/06 10:33:13;;;;;;;3.70;1.77;;;9.20;99.90;;;;;;7386560;19;20062;-78
2024/01/06 10:35:42;;;;;;;8.98;2.42;;;9.30;99.90;;;;;;7388368;19;20059;-80
2024/01/06 10:38:11;;;;;;;14.40;2.03;;;9.30;99.90;;;;;;7407573;19;20028;-79
2024/01/06 10:40:39;;;;;;;8.35;2.50;;;9.40;99.90;;;;;;7381170;19;20011;-77
2024/01/06 10:43:11;;;;;;;5.93;2.15;;;9.60;99.90;;;;;;7380866;19;20011;-77
2024/01/06 10:45:44;;;;;;;14.15;2.13;;;9.60;99.90;;;;;;7382699;19;20376;-77
2024/01/06 10:48:13;;;;;;;7.72;2.20;;;9.70;99.90;;;;;;7386108;19;20028;-77
2024/01/06 10:50:42;;;;;;;9.63;3.05;;;9.70;99.90;;;;;;7385746;19;20035;-76
2024/01/06 10:53:11;;;;;;;1.75;1.63;;;9.80;99.90;;;;;;7404449;19;20013;-77
2024/01/06 10:55:41;;;;;;;3.97;1.27;;;9.90;99.90;;;;;;7380318;19;20023;-77
2024/01/06 10:58:12;;;;;;;14.32;2.67;;;9.80;99.90;;;;;;7379100;19;20007;-77
2024/01/06 11:00:43;;;;;;;4.30;2.00;;;9.90;99.90;;;;;;7381089;19;20002;-77
2024/01/06 11:03:12;;;;;;;5.65;2.70;;;10.00;99.90;;;;;;7381193;19;20236;-77
2024/01/06 11:05:42;;;;;;;3.58;2.00;;;10.10;99.90;;;;;;7401497;19;20002;-77
2024/01/06 11:08:12;;;;;;;3.30;1.48;;;10.10;99.90;;;;;;7401719;19;20024;-76
2024/01/06 11:10:42;;;;;;;2.58;1.20;;;10.10;99.90;;;;;;7379454;19;20006;-76
2024/01/06 11:13:13;;;;;;;4.22;2.35;;;10.10;99.90;;;;;;7379983;19;20070;-77
2024/01/06 11:15:46;;;;;;;6.30;2.10;;;10.20;99.90;;;;;;7379880;19;19999;-77
2024/01/06 11:18:41;;;;;;;4.18;2.22;;;10.20;99.90;;;;;;7378646;19;20054;-77
2024/01/06 11:21:26;;;;;;;4.00;1.90;;;10.20;99.90;;;;;;7378626;19;20010;-77
2024/01/06 11:24:24;;;;;;;5.72;2.17;;;10.10;99.90;;;;;;7379621;19;20009;-76
2024/01/06 11:26:54;;;;;;;5.72;2.50;;;9.90;99.90;;;;;;7378092;19;20007;-77
2024/01/06 11:29:25;;;;;;;14.10;2.90;;;9.90;99.90;;;;;;7400327;19;20006;-77
2024/01/06 11:32:22;;;;;;;3.00;1.58;;;9.90;99.90;;;;;;7379606;19;20016;-77
2024/01/06 11:34:52;;;;;;;7.45;2.20;;;9.90;99.90;;;;;;7378815;19;20003;-77
2024/01/06 11:37:27;;;;;;;6.83;2.97;;;9.90;99.90;;;;;;7378541;19;20007;-77
2024/01/06 11:39:56;;;;;;;10.73;2.95;;;10.00;99.90;;;;;;7377817;19;20361;-77
2024/01/06 11:42:34;;;;;;;3.80;1.80;;;9.70;99.90;;;;;;7378976;19;20014;-77
2024/01/06 11:45:05;;;;;;;6.53;2.63;;;9.80;99.90;;;;;;7379632;19;20023;-77
2024/01/06 11:47:38;;;;;;;5.10;1.60;;;9.80;99.90;;;;;;7400465;19;20404;-77
2024/01/06 11:50:08;;;;;;;4.07;1.52;;;10.00;99.90;;;;;;7378279;19;20062;-76
2024/01/06 11:52:37;;;;;;;9.00;1.73;;;9.90;99.90;;;;;;7377297;19;20314;-77
2024/01/06 11:55:11;;;;;;;3.90;1.30;;;9.70;99.90;;;;;;7378455;19;20010;-77
2024/01/06 11:57:40;;;;;;;6.63;2.85;;;9.60;99.90;;;;;;7378219;19;20499;-77
2024/01/06 12:00:10;;;;;;;5.32;1.30;;;9.70;99.90;;;;;;7378350;19;20022;-77
2024/01/06 12:02:41;;;;;;;7.05;2.20;;;9.60;99.90;;;;;;7400154;19;20024;-78
2024/01/06 12:05:14;;;;;;;;;;;9.60;99.90;;;;;;7390658;19;20007;-77
2024/01/06 12:07:44;;;;;;;5.95;1.75;;;9.70;99.90;;;;;;7390827;19;19911;-77
2024/01/06 12:10:14;;;;;;;2.30;1.20;;;9.60;99.90;;;;;;7393439;19;20089;-77
2024/01/06 12:12:42;;;;;;;12.52;4.72;;;9.80;99.90;;;;;;7393169;19;20003;-77
2024/01/06 12:15:12;;;;;;;14.45;3.97;;;9.70;99.90;;;;;;7391625;19;20003;-77
2024/01/06 12:17:46;;;;;;;23.38;7.55;;;9.90;99.90;;;;;;7398780;19;20074;-76
2024/01/06 12:20:15;;;;;;;2.83;1.40;;;9.80;99.90;;;;;;7377755;19;20022;-77
2024/01/06 12:22:44;;;;;;;4.35;2.13;;;9.90;99.90;;;;;;7377091;19;20059;-76
2024/01/06 12:25:15;;;;;;;7.75;1.80;;;9.90;99.90;;;;;;7378159;19;20003;-77
2024/01/06 12:27:45;;;;;;;23.90;5.88;;;9.90;99.90;;;;;;7377330;19;20016;-77
2024/01/06 12:30:21;;;;;;;18.85;5.50;;;9.80;99.90;;;;;;7376263;19;20007;-76
2024/01/06 12:32:53;;;;;;;3.15;1.90;;;10.10;99.90;;;;;;7377323;19;20018;-77
2024/01/06 12:35:23;;;;;;;14.90;4.30;;;9.80;99.90;;;;;;7397306;19;20102;-76
2024/01/06 12:37:51;;;;;;;4.80;2.10;;;10.00;99.90;;;;;;7377181;19;20011;-77
2024/01/06 12:40:21;;;;;;;2.88;1.75;;;10.00;99.90;;;;;;7377084;19;20066;-76
2024/01/06 12:42:50;;;;;;;6.03;1.52;;;9.80;99.90;;;;;;7377715;19;20003;-77
2024/01/06 12:45:19;;;;;;;6.30;2.30;;;9.70;99.90;;;;;;7371030;19;20074;-78
2024/01/06 12:47:47;;;;;;;12.55;1.38;;;9.90;99.90;;;;;;7391141;19;20016;-77
2024/01/06 12:50:19;;;;;;;4.88;1.50;;;9.70;99.90;;;;;;7398767;19;20019;-77
2024/01/06 12:52:47;;;;;;;;;;;10.00;99.90;;;;;;7377989;19;20058;-78
2024/01/06 12:55:18;;;;;;;4.72;1.95;;;10.20;99.90;;;;;;7377983;19;19917;-78
2024/01/06 12:57:47;;;;;;;7.37;2.77;;;10.10;99.90;;;;;;7377943;19;20003;-77
2024/01/06 13:00:19;;;;;;;8.48;3.85;;;10.30;99.90;;;;;;7377967;19;20062;-80
2024/01/06 13:02:49;;;;;;;9.60;2.00;;;10.40;99.90;;;;;;7384391;19;20258;-77
2024/01/06 13:05:22;;;;;;;6.95;2.17;;;10.30;99.90;;;;;;7406466;19;20020;-78
2024/01/06 13:07:51;;;;;;;2.53;1.33;;;10.30;99.90;;;;;;7388439;19;20020;-77
2024/01/06 13:10:19;;;;;;;5.40;1.65;;;10.20;99.90;;;;;;7383063;19;20007;-77
2024/01/06 13:12:49;;;;;;;3.75;1.33;;;10.20;99.90;;;;;;7384443;19;20007;-78
2024/01/06 13:15:18;;;;;;;2.92;1.45;;;10.20;99.90;;;;;;7384572;19;20011;-77
2024/01/06 13:17:48;;;;;;;1.67;1.30;;;10.30;99.90;;;;;;7402204;19;20038;-82
2024/01/06 13:20:16;;;;;;;6.40;1.48;;;10.00;99.90;;;;;;7406788;19;20007;-77
2024/01/06 13:22:48;;;;;;;3.35;1.25;;;10.20;99.90;;;;;;7385586;19;20006;-78
2024/01/06 13:25:17;;;;;;;3.20;1.67;;;10.00;99.90;;;;;;7389283;19;20682;-78
2024/01/06 13:27:45;;;;;;;3.05;1.70;;;10.00;99.90;;;;;;7385760;19;20015;-79
2024/01/06 13:30:15;;;;;;;3.97;1.58;;;10.00;99.90;;;;;;7385252;19;20018;-79
2024/01/06 13:32:44;;;;;;;3.55;1.50;;;9.90;99.90;;;;;;7409900;19;20009;-79
2024/01/06 13:35:13;;;;;;;5.97;2.72;;;10.00;99.90;;;;;;7388323;19;20380;-80
2024/01/06 13:37:43;;;;;;;3.97;2.28;;;9.90;99.90;;;;;;7385631;19;20010;-80
2024/01/06 13:40:19;;;;;;;5.97;2.42;;;9.90;99.90;;;;;;7384870;19;20003;-80
2024/01/06 13:42:48;;;;;;;4.45;1.65;;;9.80;99.90;;;;;;7384439;19;20378;-79
2024/01/06 13:45:17;;;;;;;3.20;1.33;;;9.80;99.90;;;;;;7385150;19;20026;-80
2024/01/06 13:47:47;;;;;;;5.65;1.40;;;9.70;99.90;;;;;;7406561;19;20014;-80
2024/01/06 13:50:18;;;;;;;3.03;1.40;;;9.80;99.90;;;;;;7386539;19;20033;-80
2024/01/06 13:52:48;;;;;;;5.28;1.38;;;9.80;99.90;;;;;;7385764;19;20032;-80
2024/01/06 13:56:03;;;;;;;;;;;;;;;;;;;;;
2024/01/06 13:58:47;;;;;;;4.28;1.52;;;9.90;99.90;;;;;;7383079;19;19999;-80
2024/01/06 14:01:28;;;;;;;;;;;;;;;;;;;;;
2024/01/06 14:04:02;;;;;;;2.70;1.40;;;10.00;99.90;;;;;;7383273;19;20023;-79
2024/01/06 14:06:40;;;;;;;2.17;1.25;;;9.90;99.90;;;;;;7384189;19;20357;-78
2024/01/06 14:09:28;;;;;;;3.42;1.30;;;9.90;99.90;;;;;;7384460;19;20026;-80
2024/01/06 14:12:05;;;;;;;4.55;1.10;;;9.80;99.90;;;;;;7384445;19;20007;-80
2024/01/06 14:14:46;;;;;;;;;;;;;;;;;;;;;
2024/01/06 14:17:34;;;;;;;;;;;;;;;;;;;;;
2024/01/06 14:20:09;;;;;;;7.53;1.30;;;9.50;99.90;;;;;;7397075;19;20007;-78
2024/01/06 14:22:43;;;;;;;1.98;1.23;;;9.60;99.90;;;;;;7400867;19;19998;-79
2024/01/06 14:25:13;;;;;;;11.48;1.50;;;9.60;99.90;;;;;;7396632;19;20090;-80
2024/01/06 14:27:49;;;;;;;6.63;1.55;;;9.70;99.90;;;;;;7386034;19;20108;-78
2024/01/06 14:30:21;;;;;;;2.58;1.33;;;9.70;99.90;;;;;;7383255;19;20073;-79
2024/01/06 14:32:51;;;;;;;4.72;1.63;;;9.40;99.90;;;;;;7407910;19;20003;-78
2024/01/06 14:35:36;;;;;;;7.32;1.88;;;9.60;99.90;;;;;;7385143;19;20002;-78
2024/01/06 14:38:09;;;;;;;5.45;1.60;;;9.70;99.90;;;;;;7384153;19;20026;-79
2024/01/06 14:40:41;;;;;;;5.05;1.48;;;9.50;99.90;;;;;;7383699;19;20030;-78
2024/01/06 14:43:12;;;;;;;3.25;1.35;;;9.60;99.90;;;;;;7384375;19;20032;-78
2024/01/06 14:45:57;;;;;;;;;;;;;;;;;;;;;
2024/01/06 14:48:30;;;;;;;9.20;1.73;;;9.50;99.90;;;;;;7384626;19;20360;-79
2024/01/06 14:51:00;;;;;;;30.90;1.98;;;9.50;99.90;;;;;;7381518;19;20002;-77
2024/01/06 14:53:35;;;;;;;6.35;1.42;;;9.70;99.90;;;;;;7405692;19;20031;-78
2024/01/06 14:56:55;;;;;;;;;;;;;;;;;;;;;
2024/01/06 14:59:37;;;;;;;2.80;1.15;;;9.60;99.90;;;;;;7379323;19;20785;-80
2024/01/06 15:02:36;;;;;;;;;;;;;;;;;;;;;
2024/01/06 15:08:08;;;;;;;3.78;1.23;;;9.60;99.90;;;;;;7381718;19;20011;-77
2024/01/06 15:10:37;;;;;;;6.15;1.80;;;9.60;99.90;;;;;;7383526;19;20386;-79
2024/01/06 15:13:08;;;;;;;5.70;1.63;;;9.80;99.90;;;;;;7383396;19;20010;-79
2024/01/06 15:15:53;;;;;;;;;;;;;;;;;;;;;
2024/01/06 15:18:31;;;;;;;4.45;1.73;;;9.90;99.90;;;;;;7388667;19;20341;-79
2024/01/06 15:21:00;;;;;;;4.95;1.45;;;9.60;99.90;;;;;;7381131;19;20011;-79
2024/01/06 15:23:31;;;;;;;5.80;1.42;;;9.70;99.90;;;;;;7404798;19;20015;-78
2024/01/06 15:26:03;;;;;;;;;;;9.60;99.90;;;;;;7383874;19;20007;-78
2024/01/06 15:28:32;;;;;;;5.18;1.30;;;9.40;99.90;;;;;;7385157;19;19915;-78
2024/01/06 15:31:12;;;;;;;4.78;1.35;;;9.50;99.90;;;;;;7386745;19;20028;-81
2024/01/06 15:33:50;;;;;;;6.13;1.40;;;9.40;99.90;;;;;;7383287;19;20006;-78
2024/01/06 15:39:44;;;;;;;2.17;1.10;;;9.30;99.90;;;;;;7419192;19;20323;-79
2024/01/06 15:42:37;;;;;;;2.30;1.13;;;9.50;99.90;;;;;;7418376;19;20010;-81
2024/01/06 15:45:17;;;;;;;;;;;;;;;;;;;;;
2024/01/06 15:47:50;;;;;;;5.53;1.23;;;9.50;99.90;;;;;;7439462;19;20018;-80
2024/01/06 15:50:22;;;;;;;9.10;1.20;;;9.50;99.90;;;;;;7416876;19;20011;-79
2024/01/06 15:52:50;;;;;;;2.42;1.27;;;9.40;99.90;;;;;;7416016;19;20003;-78
2024/01/06 15:55:24;;;;;;;5.22;1.00;;;9.40;99.90;;;;;;7414745;19;20011;-78
2024/01/06 15:57:54;;;;;;;4.30;1.25;;;9.40;99.90;;;;;;7412414;19;20048;-78
2024/01/06 16:00:31;;;;;;;7.20;1.35;;;9.40;99.90;;;;;;7416381;19;20006;-80
2024/01/06 16:03:14;;;;;;;3.33;1.25;;;9.30;99.90;;;;;;7415485;19;20023;-80
2024/01/06 16:05:45;;;;;;;7.93;1.27;;;9.40;99.90;;;;;;7437612;19;20002;-77
2024/01/06 16:08:16;;;;;;;1.77;1.27;;;9.30;99.90;;;;;;7416117;19;20035;-80
2024/01/06 16:14:20;;;;;;;2.13;1.00;;;9.50;99.90;;;;;;7419011;19;20018;-78
2024/01/06 16:16:48;;;;;;;6.05;1.33;;;9.50;99.90;;;;;;7417739;19;20010;-76
2024/01/06 16:19:21;;;;;;;2.15;1.48;;;9.70;99.90;;;;;;7436292;19;20010;-79
2024/01/06 16:21:50;;;;;;;4.40;1.50;;;9.50;99.90;;;;;;7416683;19;20214;-79
2024/01/06 16:24:19;;;;;;;3.83;1.02;;;9.70;99.90;;;;;;7418942;19;21167;-78
2024/01/06 16:26:48;;;;;;;3.33;1.20;;;9.80;99.90;;;;;;7440632;19;20027;-77
2024/01/06 16:29:24;;;;;;;2.15;1.38;;;9.90;99.90;;;;;;7429939;19;20023;-80
2024/01/06 16:31:54;;;;;;;4.60;1.50;;;9.90;99.90;;;;;;7429384;19;20006;-78
2024/01/06 16:34:24;;;;;;;3.47;1.65;;;10.00;99.90;;;;;;7427398;19;20002;-79
2024/01/06 16:36:55;;;;;;;4.57;1.70;;;9.90;99.90;;;;;;7418617;19;20048;-79
2024/01/06 16:39:29;;;;;;;4.40;1.38;;;9.70;99.90;;;;;;7414843;19;20027;-79
2024/01/06 16:42:12;;;;;;;;;;;;;;;;;;;;;
2024/01/06 16:44:55;;;;;;;6.18;1.83;;;9.60;99.90;;;;;;7411693;19;20409;-79
2024/01/06 16:47:24;;;;;;;4.22;1.20;;;9.70;99.90;;;;;;7413633;19;20022;-79
2024/01/06 16:49:53;;;;;;;3.05;1.33;;;9.50;99.90;;;;;;7418375;19;20010;-79
2024/01/06 16:52:22;;;;;;;4.10;1.27;;;9.50;99.90;;;;;;7384123;19;20014;-77
2024/01/06 16:54:50;;;;;;;1.77;1.40;;;9.30;99.90;;;;;;7383672;19;20006;-78
2024/01/06 16:57:44;;;;;;;;;;;;;;;;;;;;;
2024/01/06 17:12:08;;;;;;;3.88;1.45;;;9.40;99.90;;;;;;7409793;19;19970;-78
2024/01/06 17:15:28;;;;;;;;;;;;;;;;;;;;;
2024/01/06 17:21:05;;;;;;;4.20;1.48;;;9.30;99.90;;;;;;7408516;19;20133;-80
2024/01/06 17:23:42;;;;;;;2.38;1.58;;;9.30;99.90;;;;;;7390230;19;20013;-82
2024/01/06 17:30:30;;;;;;;3.25;1.77;;;9.40;99.90;;;;;;7388962;19;20007;-82
2024/01/06 17:33:10;;;;;;;14.60;2.03;;;9.10;99.90;;;;;;7286988;19;2004417;-81
2024/01/06 17:35:40;;;;;;;4.40;1.85;;;9.30;99.90;;;;;;7413710;19;20018;-83
2024/01/06 17:38:14;;;;;;;9.60;2.00;;;9.50;99.90;;;;;;7384977;19;20391;-80
2024/01/06 17:40:43;;;;;;;7.28;1.70;;;9.60;99.90;;;;;;7384740;19;20378;-82
2024/01/06 17:43:14;;;;;;;9.80;1.70;;;9.60;99.90;;;;;;7383250;19;20031;-81
2024/01/06 17:45:46;;;;;;;6.10;1.65;;;9.40;99.90;;;;;;7385592;19;20007;-80
2024/01/06 17:48:17;;;;;;;6.88;2.03;;;9.40;99.90;;;;;;7382591;19;20636;-81
2024/01/06 17:50:51;;;;;;;5.18;1.75;;;9.20;99.90;;;;;;7407813;19;20032;-81
2024/01/06 17:53:20;;;;;;;2.88;1.83;;;9.30;99.90;;;;;;7385994;19;20036;-80
2024/01/06 17:55:50;;;;;;;7.40;2.30;;;9.20;99.90;;;;;;7384775;19;20015;-80
2024/01/06 17:58:20;;;;;;;9.07;2.22;;;9.40;99.90;;;;;;7387833;19;20504;-81
2024/01/06 18:00:52;;;;;;;3.15;2.25;;;9.40;99.90;;;;;;7383960;19;20010;-82
2024/01/06 18:03:20;;;;;;;12.73;2.25;;;9.30;99.90;;;;;;7390415;19;20024;-81
2024/01/06 18:05:49;;;;;;;11.65;2.33;;;9.00;99.90;;;;;;7413804;19;20014;-81
2024/01/06 18:08:18;;;;;;;7.30;2.47;;;9.20;99.90;;;;;;7391028;19;20013;-81
2024/01/06 18:10:47;;;;;;;5.25;2.22;;;9.30;99.90;;;;;;7387890;19;20022;-81
2024/01/06 18:13:17;;;;;;;7.38;2.50;;;9.20;99.90;;;;;;7387544;19;20015;-80
2024/01/06 18:15:46;;;;;;;7.05;2.05;;;9.20;99.90;;;;;;7386678;19;20010;-82
2024/01/06 18:18:20;;;;;;;5.22;2.33;;;9.10;99.90;;;;;;7388957;19;20024;-82
2024/01/06 18:20:52;;;;;;;9.52;2.58;;;9.00;99.90;;;;;;7409936;19;20067;-83
2024/01/06 18:23:21;;;;;;;4.45;2.17;;;9.10;99.90;;;;;;7387276;19;20034;-81
2024/01/06 18:25:50;;;;;;;3.75;2.30;;;9.20;99.90;;;;;;7389892;19;20010;-81
2024/01/06 18:28:22;;;;;;;11.80;2.50;;;9.00;99.90;;;;;;7387523;19;20003;-81
2024/01/06 18:30:53;;;;;;;5.65;2.38;;;9.00;99.90;;;;;;7387238;19;20013;-81
2024/01/06 18:33:25;;;;;;;7.82;2.95;;;9.00;99.90;;;;;;7386809;19;20007;-81
2024/01/06 18:35:51;;;;;;;;;;;9.10;99.90;;;;;;7409999;19;20033;-82
2024/01/06 18:38:24;;;;;;;11.48;1.98;;;9.00;99.90;;;;;;7388321;19;19939;-83
2024/01/06 18:41:01;;;;;;;13.23;2.63;;;9.00;99.90;;;;;;7390301;19;20047;-81
2024/01/06 18:43:30;;;;;;;6.30;2.63;;;9.10;99.90;;;;;;7406266;19;20070;-82
2024/01/06 18:46:04;;;;;;;6.82;2.97;;;9.20;99.90;;;;;;7405952;19;20046;-82
2024/01/06 18:48:35;;;;;;;11.23;2.85;;;9.20;99.90;;;;;;7404821;19;20011;-81
2024/01/06 18:51:04;;;;;;;;;;;9.10;99.90;;;;;;7423668;19;20030;-80
2024/01/06 18:53:35;;;;;;;3.58;2.17;;;9.30;99.90;;;;;;7396092;19;19911;-80
2024/01/06 18:56:04;;;;;;;9.77;2.95;;;9.20;99.90;;;;;;7388523;19;20003;-81
2024/01/06 18:58:33;;;;;;;9.18;2.90;;;9.10;99.90;;;;;;7387615;19;20014;-82
2024/01/06 19:01:02;;;;;;;7.30;2.83;;;8.90;99.90;;;;;;7387845;19;20091;-82
2024/01/06 19:03:33;;;;;;;12.75;3.17;;;8.90;99.90;;;;;;7392069;19;20017;-81
2024/01/06 19:06:07;;;;;;;6.20;3.00;;;8.80;99.90;;;;;;7410999;19;20003;-82
2024/01/06 19:08:36;;;;;;;9.65;3.63;;;8.80;99.90;;;;;;7390385;19;20354;-80
2024/01/06 19:11:05;;;;;;;6.88;3.40;;;8.90;99.90;;;;;;7390504;19;20022;-82
2024/01/06 19:13:36;;;;;;;9.27;3.47;;;8.80;99.90;;;;;;7388400;19;20030;-81
2024/01/06 19:16:05;;;;;;;8.30;3.22;;;8.70;99.90;;;;;;7388912;19;20047;-82
2024/01/06 19:26:04;;;;;;;8.40;3.13;;;8.70;99.90;;;;;;7410510;19;20003;-83
2024/01/06 19:31:24;;;;;;;6.40;2.80;;;8.70;99.90;;;;;;7409129;19;20014;-83
2024/01/06 19:34:08;;;;;;;9.35;3.42;;;8.80;99.90;;;;;;7389952;19;20002;-82
2024/01/06 19:37:16;;;;;;;8.52;3.42;;;8.70;99.90;;;;;;7406631;19;20015;-85
2024/01/06 20:16:25;;;;;;;16.63;2.83;;;8.40;99.90;;;;;;7118297;19;5776440;-82
2024/01/06 20:19:49;;;;;;;;;;;;;;;;;;;;;
2024/01/06 20:22:40;;;;;;;5.53;3.15;;;8.20;99.90;;;;;;7417231;19;20844;-81
2024/01/06 20:25:19;;;;;;;4.65;2.47;;;8.60;99.90;;;;;;7417154;19;20010;-79
2024/01/06 20:28:02;;;;;;;;;;;;;;;;;;;;;
2024/01/06 20:30:56;;;;;;;7.70;3.30;;;8.70;99.90;;;;;;7417775;19;19995;-79
2024/01/06 20:33:32;;;;;;;12.80;4.35;;;8.90;99.90;;;;;;7415860;19;20022;-78
2024/01/06 20:36:10;;;;;;;10.70;3.47;;;9.10;99.90;;;;;;7435456;19;20049;-78
2024/01/06 20:39:04;;;;;;;8.35;3.05;;;9.00;99.90;;;;;;7413446;19;20007;-79
2024/01/06 20:42:03;;;;;;;;;;;;;;;;;;;;;
2024/01/06 20:44:53;;;;;;;;;;;;;;;;;;;;;
2024/01/06 20:47:24;;;;;;;8.40;3.27;;;9.00;99.90;;;;;;7413353;19;20249;-77
2024/01/06 20:50:00;;;;;;;6.18;3.45;;;9.00;99.90;;;;;;7436131;19;19999;-77
2024/01/06 20:52:30;;;;;;;10.15;4.00;;;9.00;99.90;;;;;;7419765;19;20015;-78
2024/01/06 20:55:03;;;;;;;10.20;3.75;;;9.10;99.90;;;;;;7422611;19;20033;-78
2024/01/06 20:57:47;;;;;;;;;;;;;;;;;;;;;
2024/01/06 21:01:12;;;;;;;;;;;;;;;;;;;;;
2024/01/06 21:03:43;;;;;;;17.25;4.10;;;9.20;99.90;;;;;;7430299;19;20022;-77
2024/01/06 21:07:05;;;;;;;;;;;;;;;;;;;;;
2024/01/06 21:10:02;;;;;;;;;;;;;;;;;;;;;
2024/01/06 21:12:47;;;;;;;10.93;3.50;;;9.30;99.90;;;;;;7400099;19;20344;-77
2024/01/06 21:15:20;;;;;;;15.50;4.30;;;9.30;99.90;;;;;;7378926;19;20370;-77
2024/01/06 21:18:16;;;;;;;10.05;4.10;;;9.20;99.90;;;;;;7402527;19;20009;-78
2024/01/06 21:20:58;;;;;;;7.95;3.83;;;9.30;99.90;;;;;;7382533;19;20002;-77
2024/01/06 21:23:49;;;;;;;;;;;;;;;;;;;;;
2024/01/06 21:26:59;;;;;;;12.32;4.40;;;9.20;99.90;;;;;;7385653;19;20006;-77
2024/01/06 21:29:44;;;;;;;12.40;4.38;;;9.10;99.90;;;;;;7385042;19;20016;-78
2024/01/06 21:32:26;;;;;;;10.73;3.70;;;9.00;99.90;;;;;;7381973;19;20039;-78
2024/01/06 21:35:12;;;;;;;12.27;4.75;;;9.00;99.90;;;;;;7383141;19;20047;-78
2024/01/06 21:40:29;;;;;;;12.80;4.28;;;9.30;99.90;;;;;;7383116;19;20102;-79
2024/01/06 21:43:21;;;;;;;;;;;;;;;;;;;;;
2024/01/06 21:46:21;;;;;;;10.15;3.30;;;9.10;99.90;;;;;;7383358;19;20010;-79
2024/01/06 21:49:08;;;;;;;;;;;;;;;;;;;;;
2024/01/06 21:52:15;;;;;;;;;;;;;;;;;;;;;
2024/01/06 21:55:07;;;;;;;;;;;;;;;;;;;;;
2024/01/06 21:57:43;;;;;;;7.90;3.92;;;8.70;99.90;;;;;;7405160;19;20013;-79
2024/01/06 22:01:04;;;;;;;;;;;;;;;;;;;;;
2024/01/06 22:12:48;;;;;;;9.93;3.35;;;8.70;99.90;;;;;;7418609;19;20332;-78
2024/01/06 22:15:43;;;;;;;7.85;4.03;;;8.70;99.90;;;;;;7419133;19;20360;-79
2024/01/06 22:18:25;;;;;;;6.30;3.38;;;8.80;99.90;;;;;;7438821;19;20328;-79
2024/01/06 22:21:14;;;;;;;7.50;3.50;;;8.80;99.90;;;;;;7415860;19;20014;-78
2024/01/06 22:24:02;;;;;;;;;;;;;;;;;;;;;
2024/01/06 22:26:31;;;;;;;26.80;3.72;;;9.00;99.90;;;;;;7415717;19;20123;-78
2024/01/06 22:29:03;;;;;;;8.90;2.90;;;8.90;99.90;;;;;;7414201;19;20006;-78
2024/01/06 22:31:31;;;;;;;8.40;3.50;;;8.50;99.90;;;;;;7412713;19;20011;-78
2024/01/06 22:34:01;;;;;;;11.68;3.63;;;8.80;99.90;;;;;;7412260;19;20003;-77
2024/01/06 22:36:29;;;;;;;7.90;2.78;;;8.90;99.90;;;;;;7418772;19;20018;-78
2024/01/06 22:38:58;;;;;;;11.13;3.58;;;8.70;99.90;;;;;;7437075;19;20024;-78
2024/01/06 22:41:27;;;;;;;8.45;2.65;;;8.70;99.90;;;;;;7420732;19;20099;-78
2024/01/06 22:43:56;;;;;;;9.77;2.92;;;8.80;99.90;;;;;;7418439;19;20306;-78
2024/01/06 22:46:27;;;;;;;10.95;3.35;;;8.80;99.90;;;;;;7417576;19;20075;-79
2024/01/06 22:48:55;;;;;;;;;;;8.80;99.90;;;;;;7418562;19;20103;-79
2024/01/06 22:51:24;;;;;;;8.55;2.75;;;8.90;99.90;;;;;;7418321;19;19915;-78